Time;durP1;ratioP1;P1;durP2;ratioP2;P2;SDS_P1;SDS_P2;PMS_P1;PMS_P2;Temp;Humidity;BMP_temperature;BMP_pressure;BME280_temperature;BME280_humidity;BME280_pressure;Samples;Min_cycle;Max_cycle;Signal;HPM_P1;HPM_P2
2024/01/01 00:01:22;;;;;;;;;;;;;;;;;;5126514;28;19973;-58
2024/01/01 00:03:53;;;;;;;;;;;;;;;;;;5140041;28;19929;-59
2024/01/01 00:06:25;;;;;;;;;;;;;;;;;;5140403;28;19922;-59
2024/01/01 00:08:56;;;;;;;;;;;;;;;;;;5141744;28;19945;-59
2024/01/01 00:11:27;;;;;;;;;;;;;;;;;;5127164;28;20286;-57
2024/01/01 00:13:59;;;;;;;;;;;;;;;;;;5142405;28;19929;-58
2024/01/01 00:16:31;;;;;;;;;;;;;;;;;;5148957;28;19965;-58
2024/01/01 00:19:02;;;;;;;;;;;;;;;;;;5137873;28;19969;-58
2024/01/01 00:21:33;;;;;;;;;;;;;;;;;;5125955;28;19925;-57
2024/01/01 00:24:04;;;;;;;;;;;;;;;;;;5141888;28;19922;-57
2024/01/01 00:26:35;;;;;;;;;;;;;;;;;;5120726;28;19918;-58
2024/01/01 00:29:09;;;;;;;;;;;;;;;;;;5124833;28;19925;-58
2024/01/01 00:31:40;;;;;;;;;;;;;;;;;;5142154;28;19929;-58
2024/01/01 00:34:11;;;;;;;;;;;;;;;;;;5141907;28;19934;-58
2024/01/01 00:36:42;;;;;;;;;;;;;;;;;;5138034;28;20033;-58
2024/01/01 00:39:13;;;;;;;;;;;;;;;;;;5141987;28;19968;-56
2024/01/01 00:41:44;;;;;;;;;;;;;;;;;;5141751;28;19989;-56
2024/01/01 00:44:15;;;;;;;;;;;;;;;;;;5147606;28;20351;-56
2024/01/01 00:46:47;;;;;;;;;;;;;;;;;;5140675;28;20235;-57
2024/01/01 00:49:18;;;;;;;;;;;;;;;;;;5125377;28;19918;-57
2024/01/01 00:51:49;;;;;;;;;;;;;;;;;;5142219;28;20031;-58
2024/01/01 00:54:20;;;;;;;;;;;;;;;;;;5139992;28;19926;-58
2024/01/01 00:56:54;;;;;;;;;;;;;;;;;;5142942;28;20393;-58
2024/01/01 00:59:25;;;;;;;;;;;;;;;;;;5118180;28;19926;-60
2024/01/01 01:01:56;;;;;;;;;;;;;;;;;;5127546;28;19922;-59
2024/01/01 01:04:27;;;;;;;;;;;;;;;;;;5142587;28;20075;-58
2024/01/01 01:06:58;;;;;;;;;;;;;;;;;;5141898;28;19957;-59
2024/01/01 01:09:29;;;;;;;;;;;;;;;;;;5147641;28;19948;-58
2024/01/01 01:12:00;;;;;;;;;;;;;;;;;;5149475;28;20361;-58
2024/01/01 01:14:31;;;;;;;;;;;;;;;;;;5144565;28;19948;-63
2024/01/01 01:17:02;;;;;;;;;;;;;;;;;;5142415;28;19918;-60
2024/01/01 01:19:33;;;;;;;;;;;;;;;;;;5132718;28;19957;-62
2024/01/01 01:22:04;;;;;;;;;;;;;;;;;;5135109;28;19961;-61
2024/01/01 01:24:35;;;;;;;;;;;;;;;;;;5151067;28;20016;-59
2024/01/01 01:27:06;;;;;;;;;;;;;;;;;;5163256;28;19949;-60
2024/01/01 01:29:37;;;;;;;;;;;;;;;;;;5145046;28;19922;-60
2024/01/01 01:32:09;;;;;;;;;;;;;;;;;;5145114;28;20277;-58
2024/01/01 01:34:40;;;;;;;;;;;;;;;;;;5144813;28;19937;-59
2024/01/01 01:37:11;;;;;;;;;;;;;;;;;;5129218;28;19918;-58
2024/01/01 01:39:42;;;;;;;;;;;;;;;;;;5145080;28;20309;-58
2024/01/01 01:42:13;;;;;;;;;;;;;;;;;;5126867;28;19925;-58
2024/01/01 01:44:44;;;;;;;;;;;;;;;;;;5148809;28;19922;-60
2024/01/01 01:47:15;;;;;;;;;;;;;;;;;;5151518;28;19917;-60
2024/01/01 01:49:46;;;;;;;;;;;;;;;;;;5144536;28;19922;-59
2024/01/01 01:52:17;;;;;;;;;;;;;;;;;;5128563;28;19937;-60
2024/01/01 01:54:48;;;;;;;;;;;;;;;;;;5150701;28;20435;-61
2024/01/01 01:57:19;;;;;;;;;;;;;;;;;;5144563;28;19973;-60
2024/01/01 01:59:50;;;;;;;;;;;;;;;;;;5128221;28;20282;-61
2024/01/01 02:02:22;;;;;;;;;;;;;;;;;;5144687;28;19966;-60
2024/01/01 02:04:54;;;;;;;;;;;;;;;;;;5145035;28;20357;-61
2024/01/01 02:07:25;;;;;;;;;;;;;;;;;;5127420;28;19974;-61
2024/01/01 02:09:56;;;;;;;;;;;;;;;;;;5144694;28;19969;-61
2024/01/01 02:12:27;;;;;;;;;;;;;;;;;;5142652;28;20366;-61
2024/01/01 02:14:58;;;;;;;;;;;;;;;;;;5144722;28;19918;-60
2024/01/01 02:17:29;;;;;;;;;;;;;;;;;;5144272;28;20290;-61
2024/01/01 02:20:00;;;;;;;;;;;;;;;;;;5128021;28;20001;-61
2024/01/01 02:22:31;;;;;;;;;;;;;;;;;;5143840;28;19922;-61
2024/01/01 02:25:02;;;;;;;;;;;;;;;;;;5144288;28;20382;-59
2024/01/01 02:27:33;;;;;;;;;;;;;;;;;;5127358;28;19925;-61
2024/01/01 02:30:04;;;;;;;;;;;;;;;;;;5124910;28;19918;-58
2024/01/01 02:32:35;;;;;;;;;;;;;;;;;;5143793;28;19921;-58
2024/01/01 02:35:09;;;;;;;;;;;;;;;;;;5128241;28;20320;-57
2024/01/01 02:37:40;;;;;;;;;;;;;;;;;;5127709;28;19925;-58
2024/01/01 02:40:11;;;;;;;;;;;;;;;;;;5144582;28;19972;-59
2024/01/01 02:42:42;;;;;;;;;;;;;;;;;;5141288;28;19922;-59
2024/01/01 02:45:14;;;;;;;;;;;;;;;;;;5130862;28;19930;-60
2024/01/01 02:47:45;;;;;;;;;;;;;;;;;;5144392;28;19981;-60
2024/01/01 02:50:18;;;;;;;;;;;;;;;;;;5127963;28;19934;-60
2024/01/01 02:52:49;;;;;;;;;;;;;;;;;;5143802;28;19926;-60
2024/01/01 02:55:20;;;;;;;;;;;;;;;;;;5124780;28;20033;-60
2024/01/01 02:57:51;;;;;;;;;;;;;;;;;;5128049;28;19988;-61
2024/01/01 03:00:22;;;;;;;;;;;;;;;;;;5144151;28;19964;-62
2024/01/01 03:02:54;;;;;;;;;;;;;;;;;;5156686;28;20424;-61
2024/01/01 03:05:27;;;;;;;;;;;;;;;;;;5146924;28;19976;-61
2024/01/01 03:07:58;;;;;;;;;;;;;;;;;;5145394;28;20023;-61
2024/01/01 03:10:29;;;;;;;;;;;;;;;;;;5143354;28;19933;-60
2024/01/01 03:13:00;;;;;;;;;;;;;;;;;;5127331;28;19996;-61
2024/01/01 03:15:31;;;;;;;;;;;;;;;;;;5127737;28;19922;-60
2024/01/01 03:18:02;;;;;;;;;;;;;;;;;;5126338;28;19961;-61
2024/01/01 03:20:33;;;;;;;;;;;;;;;;;;5127146;28;20325;-60
2024/01/01 03:23:04;;;;;;;;;;;;;;;;;;5127533;28;19929;-61
2024/01/01 03:25:35;;;;;;;;;;;;;;;;;;5146247;28;20012;-60
2024/01/01 03:28:06;;;;;;;;;;;;;;;;;;5132329;28;19964;-59
2024/01/01 03:30:37;;;;;;;;;;;;;;;;;;5141832;28;19925;-59
2024/01/01 03:33:09;;;;;;;;;;;;;;;;;;5143331;28;19922;-58
2024/01/01 03:35:40;;;;;;;;;;;;;;;;;;5143562;28;19929;-59
2024/01/01 03:38:11;;;;;;;;;;;;;;;;;;5144834;28;19972;-59
2024/01/01 03:40:42;;;;;;;;;;;;;;;;;;5123363;28;19977;-58
2024/01/01 03:43:13;;;;;;;;;;;;;;;;;;5138713;28;19917;-59
2024/01/01 03:45:44;;;;;;;;;;;;;;;;;;5143199;28;19973;-59
2024/01/01 03:48:15;;;;;;;;;;;;;;;;;;5121439;28;19965;-60
2024/01/01 03:50:46;;;;;;;;;;;;;;;;;;5149245;28;20337;-59
2024/01/01 03:53:17;;;;;;;;;;;;;;;;;;5144796;28;19976;-59
2024/01/01 03:55:48;;;;;;;;;;;;;;;;;;5128834;28;19924;-59
2024/01/01 03:58:19;;;;;;;;;;;;;;;;;;5143056;28;19918;-58
2024/01/01 04:00:50;;;;;;;;;;;;;;;;;;5126046;28;19932;-58
2024/01/01 04:03:21;;;;;;;;;;;;;;;;;;5142653;28;19930;-57
2024/01/01 04:05:52;;;;;;;;;;;;;;;;;;5126304;28;19940;-58
2024/01/01 04:08:23;;;;;;;;;;;;;;;;;;5143964;28;19918;-58
2024/01/01 04:10:54;;;;;;;;;;;;;;;;;;5122924;28;19925;-59
2024/01/01 04:13:25;;;;;;;;;;;;;;;;;;5142304;28;20261;-58
2024/01/01 04:15:56;;;;;;;;;;;;;;;;;;5136440;28;19925;-58
2024/01/01 04:18:27;;;;;;;;;;;;;;;;;;5138351;28;20297;-58
2024/01/01 04:20:58;;;;;;;;;;;;;;;;;;5142856;28;20056;-59
2024/01/01 04:23:29;;;;;;;;;;;;;;;;;;5142876;28;19961;-60
2024/01/01 04:26:00;;;;;;;;;;;;;;;;;;5146382;28;19961;-60
2024/01/01 04:28:31;;;;;;;;;;;;;;;;;;5141489;28;20005;-60
2024/01/01 04:31:02;;;;;;;;;;;;;;;;;;5134584;28;20401;-58
2024/01/01 04:33:33;;;;;;;;;;;;;;;;;;5141675;28;20055;-59
2024/01/01 04:36:04;;;;;;;;;;;;;;;;;;5142353;28;20296;-62
2024/01/01 04:38:35;;;;;;;;;;;;;;;;;;5141403;28;19940;-62
2024/01/01 04:41:08;;;;;;;;;;;;;;;;;;5142380;28;19932;-61
2024/01/01 04:43:40;;;;;;;;;;;;;;;;;;5152712;28;20304;-60
2024/01/01 04:46:11;;;;;;;;;;;;;;;;;;5141602;28;19968;-59
2024/01/01 04:48:42;;;;;;;;;;;;;;;;;;5142065;28;20361;-60
2024/01/01 04:51:13;;;;;;;;;;;;;;;;;;5149128;28;19918;-61
2024/01/01 04:53:44;;;;;;;;;;;;;;;;;;5125928;28;19918;-60
2024/01/01 04:56:16;;;;;;;;;;;;;;;;;;5127533;28;19944;-60
2024/01/01 04:58:47;;;;;;;;;;;;;;;;;;5141722;28;20293;-59
2024/01/01 05:01:18;;;;;;;;;;;;;;;;;;5125481;28;19918;-58
2024/01/01 05:03:49;;;;;;;;;;;;;;;;;;5125245;28;19940;-57
2024/01/01 05:06:20;;;;;;;;;;;;;;;;;;5141799;28;19925;-58
2024/01/01 05:08:51;;;;;;;;;;;;;;;;;;5127258;28;20638;-58
2024/01/01 05:11:22;;;;;;;;;;;;;;;;;;5141845;28;19929;-58
2024/01/01 05:13:53;;;;;;;;;;;;;;;;;;5141832;28;19930;-62
2024/01/01 05:16:25;;;;;;;;;;;;;;;;;;5141955;28;19926;-61
2024/01/01 05:18:56;;;;;;;;;;;;;;;;;;5125032;28;19914;-62
2024/01/01 05:21:27;;;;;;;;;;;;;;;;;;5142487;28;20442;-62
2024/01/01 05:23:58;;;;;;;;;;;;;;;;;;5142937;28;19926;-63
2024/01/01 05:26:29;;;;;;;;;;;;;;;;;;5141324;28;19926;-62
2024/01/01 05:29:00;;;;;;;;;;;;;;;;;;5141512;28;19922;-60
2024/01/01 05:31:31;;;;;;;;;;;;;;;;;;5141573;28;20013;-61
2024/01/01 05:34:02;;;;;;;;;;;;;;;;;;5137123;28;20005;-61
2024/01/01 05:36:33;;;;;;;;;;;;;;;;;;5141238;28;19918;-62
2024/01/01 05:39:04;;;;;;;;;;;;;;;;;;5121779;28;20421;-60
2024/01/01 05:41:35;;;;;;;;;;;;;;;;;;5141535;28;19922;-62
2024/01/01 05:44:06;;;;;;;;;;;;;;;;;;5140581;28;19922;-62
2024/01/01 05:46:38;;;;;;;;;;;;;;;;;;5124753;28;19961;-62
2024/01/01 05:49:09;;;;;;;;;;;;;;;;;;5157900;28;20408;-61
2024/01/01 05:51:40;;;;;;;;;;;;;;;;;;5143967;28;19918;-62
2024/01/01 05:54:11;;;;;;;;;;;;;;;;;;5141114;28;19918;-58
2024/01/01 05:56:44;;;;;;;;;;;;;;;;;;5141032;28;19914;-58
2024/01/01 05:59:15;;;;;;;;;;;;;;;;;;5140848;28;19933;-59
2024/01/01 06:01:46;;;;;;;;;;;;;;;;;;5140496;28;19918;-59
2024/01/01 06:04:17;;;;;;;;;;;;;;;;;;5132427;28;19934;-59
2024/01/01 06:06:48;;;;;;;;;;;;;;;;;;5145158;28;19920;-58
2024/01/01 06:09:19;;;;;;;;;;;;;;;;;;5130478;28;19918;-59
2024/01/01 06:11:50;;;;;;;;;;;;;;;;;;5144364;28;19981;-59
2024/01/01 06:14:21;;;;;;;;;;;;;;;;;;5143281;28;19925;-58
2024/01/01 06:16:52;;;;;;;;;;;;;;;;;;5127044;28;20330;-58
2024/01/01 06:19:23;;;;;;;;;;;;;;;;;;5128666;28;19914;-57
2024/01/01 06:21:54;;;;;;;;;;;;;;;;;;5143375;28;20246;-57
2024/01/01 06:24:25;;;;;;;;;;;;;;;;;;5140385;28;19922;-58
2024/01/01 06:26:56;;;;;;;;;;;;;;;;;;5144223;28;19921;-58
2024/01/01 06:29:27;;;;;;;;;;;;;;;;;;5149565;28;20300;-58
2024/01/01 06:31:58;;;;;;;;;;;;;;;;;;5145048;28;19918;-59
2024/01/01 06:34:29;;;;;;;;;;;;;;;;;;5128553;28;19992;-57
2024/01/01 06:37:00;;;;;;;;;;;;;;;;;;5143299;28;19914;-57
2024/01/01 06:39:31;;;;;;;;;;;;;;;;;;5138679;28;19914;-58
2024/01/01 06:42:02;;;;;;;;;;;;;;;;;;5135881;28;19926;-57
2024/01/01 06:44:33;;;;;;;;;;;;;;;;;;5144151;28;19954;-58
2024/01/01 06:47:04;;;;;;;;;;;;;;;;;;5141600;28;19918;-60
2024/01/01 06:49:35;;;;;;;;;;;;;;;;;;5144421;28;19918;-61
2024/01/01 06:52:07;;;;;;;;;;;;;;;;;;5124208;28;19925;-58
2024/01/01 06:54:39;;;;;;;;;;;;;;;;;;5140203;28;19914;-59
2024/01/01 06:57:10;;;;;;;;;;;;;;;;;;5141384;28;20022;-58
2024/01/01 06:59:41;;;;;;;;;;;;;;;;;;5147271;28;19937;-57
2024/01/01 07:02:12;;;;;;;;;;;;;;;;;;5127188;28;20368;-58
2024/01/01 07:04:43;;;;;;;;;;;;;;;;;;5132517;28;20263;-58
2024/01/01 07:07:14;;;;;;;;;;;;;;;;;;5140906;28;20060;-58
2024/01/01 07:09:45;;;;;;;;;;;;;;;;;;5142000;28;20276;-59
2024/01/01 07:12:18;;;;;;;;;;;;;;;;;;5145540;28;19965;-59
2024/01/01 07:14:49;;;;;;;;;;;;;;;;;;5143438;28;19918;-59
2024/01/01 07:17:20;;;;;;;;;;;;;;;;;;5143696;28;19921;-59
2024/01/01 07:19:52;;;;;;;;;;;;;;;;;;5127305;28;20013;-60
2024/01/01 07:22:23;;;;;;;;;;;;;;;;;;5143662;28;19921;-60
2024/01/01 07:24:54;;;;;;;;;;;;;;;;;;5128306;28;19931;-58
2024/01/01 07:27:25;;;;;;;;;;;;;;;;;;5142524;28;19918;-62
2024/01/01 07:29:56;;;;;;;;;;;;;;;;;;5126903;28;20393;-63
2024/01/01 07:32:27;;;;;;;;;;;;;;;;;;5149680;28;20254;-61
2024/01/01 07:34:59;;;;;;;;;;;;;;;;;;5126668;28;19968;-61
2024/01/01 07:37:30;;;;;;;;;;;;;;;;;;5143044;28;20012;-61
2024/01/01 07:40:01;;;;;;;;;;;;;;;;;;5129258;28;20004;-59
2024/01/01 07:42:32;;;;;;;;;;;;;;;;;;5125319;28;19934;-60
2024/01/01 07:45:03;;;;;;;;;;;;;;;;;;5150463;28;20498;-61
2024/01/01 07:47:35;;;;;;;;;;;;;;;;;;5126216;28;19929;-61
2024/01/01 07:50:07;;;;;;;;;;;;;;;;;;5142971;28;20008;-61
2024/01/01 07:52:38;;;;;;;;;;;;;;;;;;5125542;28;19925;-60
2024/01/01 07:55:11;;;;;;;;;;;;;;;;;;5143105;28;20231;-59
2024/01/01 07:57:42;;;;;;;;;;;;;;;;;;5142327;28;19918;-56
2024/01/01 08:00:13;;;;;;;;;;;;;;;;;;5126372;28;19918;-57
2024/01/01 08:02:44;;;;;;;;;;;;;;;;;;5142811;28;19922;-58
2024/01/01 08:05:15;;;;;;;;;;;;;;;;;;5142273;28;20045;-59
2024/01/01 08:07:47;;;;;;;;;;;;;;;;;;5142349;28;19922;-60
2024/01/01 08:10:18;;;;;;;;;;;;;;;;;;5128545;28;19922;-57
2024/01/01 08:12:49;;;;;;;;;;;;;;;;;;5141980;28;19918;-58
2024/01/01 08:15:22;;;;;;;;;;;;;;;;;;5142594;28;20361;-57
2024/01/01 08:17:53;;;;;;;;;;;;;;;;;;5127983;28;19921;-57
2024/01/01 08:20:24;;;;;;;;;;;;;;;;;;5143992;28;19926;-58
2024/01/01 08:22:55;;;;;;;;;;;;;;;;;;5141894;28;20986;-62
2024/01/01 08:25:26;;;;;;;;;;;;;;;;;;5142281;28;20262;-61
2024/01/01 08:27:57;;;;;;;;;;;;;;;;;;5127193;28;20262;-61
2024/01/01 08:30:28;;;;;;;;;;;;;;;;;;5158470;28;19976;-63
2024/01/01 08:32:59;;;;;;;;;;;;;;;;;;5141853;28;19925;-63
2024/01/01 08:35:31;;;;;;;;;;;;;;;;;;5148501;28;20643;-62
2024/01/01 08:38:02;;;;;;;;;;;;;;;;;;5143561;28;19981;-63
2024/01/01 08:40:33;;;;;;;;;;;;;;;;;;5125577;28;19914;-65
2024/01/01 08:43:06;;;;;;;;;;;;;;;;;;5131156;28;20016;-64
2024/01/01 08:45:37;;;;;;;;;;;;;;;;;;5141666;28;19945;-65
2024/01/01 08:48:08;;;;;;;;;;;;;;;;;;5146171;28;20365;-61
2024/01/01 08:50:39;;;;;;;;;;;;;;;;;;5133001;28;19922;-62
2024/01/01 08:53:10;;;;;;;;;;;;;;;;;;5141120;28;19973;-63
2024/01/01 08:55:41;;;;;;;;;;;;;;;;;;5125336;28;19922;-62
2024/01/01 08:58:12;;;;;;;;;;;;;;;;;;5144258;28;20423;-60
2024/01/01 09:00:43;;;;;;;;;;;;;;;;;;5146333;28;19922;-60
2024/01/01 09:03:14;;;;;;;;;;;;;;;;;;5142000;28;19968;-60
2024/01/01 09:05:45;;;;;;;;;;;;;;;;;;5119978;28;19969;-59
2024/01/01 09:08:16;;;;;;;;;;;;;;;;;;5139954;28;19926;-60
2024/01/01 09:10:47;;;;;;;;;;;;;;;;;;5140114;28;20458;-57
2024/01/01 09:13:18;;;;;;;;;;;;;;;;;;5124843;28;19980;-58
2024/01/01 09:15:49;;;;;;;;;;;;;;;;;;5125741;28;19914;-58
2024/01/01 09:18:20;;;;;;;;;;;;;;;;;;5146446;28;19922;-59
2024/01/01 09:20:51;;;;;;;;;;;;;;;;;;5139418;28;19918;-58
2024/01/01 09:23:25;;;;;;;;;;;;;;;;;;5144449;28;19937;-58
2024/01/01 09:25:57;;;;;;;;;;;;;;;;;;5136775;28;19922;-60
2024/01/01 09:28:28;;;;;;;;;;;;;;;;;;5141474;28;19926;-60
2024/01/01 09:30:59;;;;;;;;;;;;;;;;;;5130447;28;20396;-60
2024/01/01 09:33:31;;;;;;;;;;;;;;;;;;5139284;28;20032;-60
2024/01/01 09:36:02;;;;;;;;;;;;;;;;;;5151970;28;19922;-59
2024/01/01 09:38:33;;;;;;;;;;;;;;;;;;5144841;28;19918;-60
2024/01/01 09:41:04;;;;;;;;;;;;;;;;;;5142185;28;19940;-59
2024/01/01 09:43:35;;;;;;;;;;;;;;;;;;5145371;28;19918;-60
2024/01/01 09:46:06;;;;;;;;;;;;;;;;;;5134808;28;20037;-59
2024/01/01 09:48:37;;;;;;;;;;;;;;;;;;5133907;28;19918;-59
2024/01/01 09:51:09;;;;;;;;;;;;;;;;;;5141863;28;19921;-59
2024/01/01 09:53:40;;;;;;;;;;;;;;;;;;5145579;28;19918;-59
2024/01/01 09:56:11;;;;;;;;;;;;;;;;;;5144915;28;19914;-59
2024/01/01 09:58:42;;;;;;;;;;;;;;;;;;5146316;28;19925;-59
2024/01/01 10:01:13;;;;;;;;;;;;;;;;;;5127695;28;19922;-60
2024/01/01 10:03:44;;;;;;;;;;;;;;;;;;5128607;28;19925;-59
2024/01/01 10:06:15;;;;;;;;;;;;;;;;;;5144641;28;19922;-58
2024/01/01 10:08:46;;;;;;;;;;;;;;;;;;5152117;28;19941;-58
2024/01/01 10:11:17;;;;;;;;;;;;;;;;;;5144555;28;19922;-58
2024/01/01 10:13:49;;;;;;;;;;;;;;;;;;5135061;28;19917;-58
2024/01/01 10:16:20;;;;;;;;;;;;;;;;;;5141645;28;20063;-58
2024/01/01 10:18:51;;;;;;;;;;;;;;;;;;5144512;28;20372;-58
2024/01/01 10:21:22;;;;;;;;;;;;;;;;;;5145846;28;19932;-58
2024/01/01 10:23:53;;;;;;;;;;;;;;;;;;5128255;28;20415;-58
2024/01/01 10:26:24;;;;;;;;;;;;;;;;;;5128831;28;19921;-59
2024/01/01 10:28:55;;;;;;;;;;;;;;;;;;5147650;28;20435;-59
2024/01/01 10:31:26;;;;;;;;;;;;;;;;;;5125516;28;19914;-59
2024/01/01 10:33:59;;;;;;;;;;;;;;;;;;5144634;28;20396;-59
2024/01/01 10:36:30;;;;;;;;;;;;;;;;;;5143155;28;20382;-59
2024/01/01 10:39:01;;;;;;;;;;;;;;;;;;5127680;28;19914;-60
2024/01/01 10:41:32;;;;;;;;;;;;;;;;;;5144337;28;19921;-60
2024/01/01 10:44:03;;;;;;;;;;;;;;;;;;5128261;28;20342;-59
2024/01/01 10:46:34;;;;;;;;;;;;;;;;;;5144138;28;19914;-62
2024/01/01 10:49:05;;;;;;;;;;;;;;;;;;5143238;28;19917;-59
2024/01/01 10:51:41;;;;;;;;;;;;;;;;;;5144509;28;19917;-60
2024/01/01 10:54:12;;;;;;;;;;;;;;;;;;5127953;28;19973;-62
2024/01/01 10:56:43;;;;;;;;;;;;;;;;;;5144402;28;19985;-60
2024/01/01 10:59:14;;;;;;;;;;;;;;;;;;5143824;28;19914;-58
2024/01/01 11:01:45;;;;;;;;;;;;;;;;;;5143782;28;19918;-59
2024/01/01 11:04:18;;;;;;;;;;;;;;;;;;5143747;28;19976;-59
2024/01/01 11:06:49;;;;;;;;;;;;;;;;;;5146091;28;20014;-59
2024/01/01 11:09:24;;;;;;;;;;;;;;;;;;5129085;28;20587;-59
2024/01/01 11:11:55;;;;;;;;;;;;;;;;;;5127565;28;19914;-61
2024/01/01 11:14:26;;;;;;;;;;;;;;;;;;5128395;28;19922;-59
2024/01/01 11:16:57;;;;;;;;;;;;;;;;;;5143110;28;19930;-59
2024/01/01 11:19:28;;;;;;;;;;;;;;;;;;5143608;28;20734;-61
2024/01/01 11:21:59;;;;;;;;;;;;;;;;;;5143282;28;19976;-58
2024/01/01 11:24:30;;;;;;;;;;;;;;;;;;5145958;28;19997;-57
2024/01/01 11:27:01;;;;;;;;;;;;;;;;;;5142789;28;20376;-58
2024/01/01 11:29:32;;;;;;;;;;;;;;;;;;5145274;28;20004;-59
2024/01/01 11:32:05;;;;;;;;;;;;;;;;;;5145917;28;20307;-59
2024/01/01 11:34:37;;;;;;;;;;;;;;;;;;5126686;28;20028;-59
2024/01/01 11:37:08;;;;;;;;;;;;;;;;;;5126423;28;19918;-62
2024/01/01 11:39:39;;;;;;;;;;;;;;;;;;5142750;28;19926;-59
2024/01/01 11:42:10;;;;;;;;;;;;;;;;;;5124971;28;19921;-59
2024/01/01 11:44:41;;;;;;;;;;;;;;;;;;5141480;28;19930;-59
2024/01/01 11:47:12;;;;;;;;;;;;;;;;;;5142046;28;19957;-64
2024/01/01 11:49:43;;;;;;;;;;;;;;;;;;5142080;28;19957;-60
2024/01/01 11:52:14;;;;;;;;;;;;;;;;;;5142964;28;19953;-58
2024/01/01 11:54:45;;;;;;;;;;;;;;;;;;5142676;28;20307;-59
2024/01/01 11:57:16;;;;;;;;;;;;;;;;;;5138900;28;19914;-58
2024/01/01 11:59:48;;;;;;;;;;;;;;;;;;5142662;28;20330;-59
2024/01/01 12:02:19;;;;;;;;;;;;;;;;;;5126657;28;19987;-62
2024/01/01 12:04:50;;;;;;;;;;;;;;;;;;5142203;28;19980;-61
2024/01/01 12:07:21;;;;;;;;;;;;;;;;;;5124545;28;20049;-59
2024/01/01 12:09:52;;;;;;;;;;;;;;;;;;5125774;28;20445;-59
2024/01/01 12:12:23;;;;;;;;;;;;;;;;;;5143164;28;19914;-60
2024/01/01 12:14:54;;;;;;;;;;;;;;;;;;5141557;28;19923;-57
2024/01/01 12:17:25;;;;;;;;;;;;;;;;;;5145298;28;19957;-58
2024/01/01 12:19:56;;;;;;;;;;;;;;;;;;5141515;28;19957;-58
2024/01/01 12:22:27;;;;;;;;;;;;;;;;;;5139781;28;21362;-59
2024/01/01 12:24:58;;;;;;;;;;;;;;;;;;5139656;28;19922;-59
2024/01/01 12:27:29;;;;;;;;;;;;;;;;;;5149157;28;19922;-59
2024/01/01 12:30:00;;;;;;;;;;;;;;;;;;5144092;28;19915;-58
2024/01/01 12:32:31;;;;;;;;;;;;;;;;;;5123969;28;19918;-57
2024/01/01 12:35:03;;;;;;;;;;;;;;;;;;5142191;28;19921;-57
2024/01/01 12:37:34;;;;;;;;;;;;;;;;;;5124135;28;19973;-58
2024/01/01 12:40:05;;;;;;;;;;;;;;;;;;5136756;28;19918;-58
2024/01/01 12:42:36;;;;;;;;;;;;;;;;;;5122652;28;19914;-60
2024/01/01 12:45:07;;;;;;;;;;;;;;;;;;5158247;28;19961;-57
2024/01/01 12:47:38;;;;;;;;;;;;;;;;;;5146470;28;19940;-57
2024/01/01 12:50:10;;;;;;;;;;;;;;;;;;5143591;28;19922;-60
2024/01/01 12:52:41;;;;;;;;;;;;;;;;;;5141587;28;20372;-61
2024/01/01 12:55:12;;;;;;;;;;;;;;;;;;5142982;28;20080;-59
2024/01/01 12:57:43;;;;;;;;;;;;;;;;;;5128348;28;20005;-58
2024/01/01 13:00:14;;;;;;;;;;;;;;;;;;5141803;28;20425;-58
2024/01/01 13:02:45;;;;;;;;;;;;;;;;;;5143147;28;19957;-57
2024/01/01 13:05:16;;;;;;;;;;;;;;;;;;5140842;28;19968;-58
2024/01/01 13:07:47;;;;;;;;;;;;;;;;;;5127080;28;19929;-58
2024/01/01 13:10:18;;;;;;;;;;;;;;;;;;5139117;28;20357;-59
2024/01/01 13:12:49;;;;;;;;;;;;;;;;;;5147753;28;19918;-58
2024/01/01 13:15:19;;;;;;;;;;;;;;;;;;5147876;28;20452;-58
2024/01/01 13:17:51;;;;;;;;;;;;;;;;;;5138448;28;19961;-60
2024/01/01 13:20:22;;;;;;;;;;;;;;;;;;5156191;28;20269;-58
2024/01/01 13:22:53;;;;;;;;;;;;;;;;;;5155318;28;19918;-58
2024/01/01 13:25:24;;;;;;;;;;;;;;;;;;5151756;28;20365;-59
2024/01/01 13:27:55;;;;;;;;;;;;;;;;;;5148405;28;19918;-59
2024/01/01 13:30:26;;;;;;;;;;;;;;;;;;5132674;28;19925;-60
2024/01/01 13:32:57;;;;;;;;;;;;;;;;;;5147223;28;19941;-59
2024/01/01 13:35:28;;;;;;;;;;;;;;;;;;5131050;28;19933;-58
2024/01/01 13:37:59;;;;;;;;;;;;;;;;;;5147302;28;20373;-58
2024/01/01 13:40:30;;;;;;;;;;;;;;;;;;5146964;28;20000;-59
2024/01/01 13:43:02;;;;;;;;;;;;;;;;;;5146287;28;20409;-59
2024/01/01 13:45:33;;;;;;;;;;;;;;;;;;5146583;28;19926;-60
2024/01/01 13:48:04;;;;;;;;;;;;;;;;;;5146159;28;20330;-58
2024/01/01 13:50:35;;;;;;;;;;;;;;;;;;5146815;28;19965;-58
2024/01/01 13:53:07;;;;;;;;;;;;;;;;;;5131109;28;19925;-59
2024/01/01 13:55:38;;;;;;;;;;;;;;;;;;5131886;28;19918;-58
2024/01/01 13:58:09;;;;;;;;;;;;;;;;;;5150589;28;20262;-59
2024/01/01 14:00:40;;;;;;;;;;;;;;;;;;5146753;28;19918;-58
2024/01/01 14:03:14;;;;;;;;;;;;;;;;;;5131139;28;19929;-58
2024/01/01 14:05:45;;;;;;;;;;;;;;;;;;5146476;28;19980;-57
2024/01/01 14:08:16;;;;;;;;;;;;;;;;;;5145646;28;19926;-57
2024/01/01 14:10:48;;;;;;;;;;;;;;;;;;5146722;28;19922;-58
2024/01/01 14:13:19;;;;;;;;;;;;;;;;;;5147909;28;20074;-59
2024/01/01 14:15:50;;;;;;;;;;;;;;;;;;5135345;28;20012;-59
2024/01/01 14:18:21;;;;;;;;;;;;;;;;;;5130721;28;20357;-59
2024/01/01 14:20:52;;;;;;;;;;;;;;;;;;5146852;28;19958;-60
2024/01/01 14:23:23;;;;;;;;;;;;;;;;;;5145881;28;19925;-59
2024/01/01 14:25:54;;;;;;;;;;;;;;;;;;5143857;28;19926;-58
2024/01/01 14:28:25;;;;;;;;;;;;;;;;;;5144168;28;19941;-59
2024/01/01 14:30:56;;;;;;;;;;;;;;;;;;5144155;28;19918;-59
2024/01/01 14:33:28;;;;;;;;;;;;;;;;;;5143368;28;19958;-58
2024/01/01 14:35:59;;;;;;;;;;;;;;;;;;5130696;28;19925;-59
2024/01/01 14:38:30;;;;;;;;;;;;;;;;;;5143472;28;20078;-59
2024/01/01 14:41:01;;;;;;;;;;;;;;;;;;5126942;28;19966;-58
2024/01/01 14:43:32;;;;;;;;;;;;;;;;;;5127291;28;19922;-58
2024/01/01 14:46:03;;;;;;;;;;;;;;;;;;5142916;28;20088;-58
2024/01/01 14:48:34;;;;;;;;;;;;;;;;;;5129879;28;20413;-58
2024/01/01 14:51:05;;;;;;;;;;;;;;;;;;5143592;28;19929;-57
2024/01/01 14:53:36;;;;;;;;;;;;;;;;;;5143734;28;20281;-56
2024/01/01 14:56:07;;;;;;;;;;;;;;;;;;5143047;28;19998;-57
2024/01/01 14:58:39;;;;;;;;;;;;;;;;;;5138839;28;19922;-56
2024/01/01 15:01:10;;;;;;;;;;;;;;;;;;5143326;28;19926;-56
2024/01/01 15:03:41;;;;;;;;;;;;;;;;;;5148422;28;19965;-57
2024/01/01 15:06:12;;;;;;;;;;;;;;;;;;5130940;28;19922;-56
2024/01/01 15:08:43;;;;;;;;;;;;;;;;;;5138748;28;20377;-55
2024/01/01 15:11:14;;;;;;;;;;;;;;;;;;5125787;28;20284;-57
2024/01/01 15:13:45;;;;;;;;;;;;;;;;;;5143233;28;19929;-55
2024/01/01 15:16:16;;;;;;;;;;;;;;;;;;5126516;28;19932;-54
2024/01/01 15:18:48;;;;;;;;;;;;;;;;;;5142544;28;20398;-56
2024/01/01 15:21:19;;;;;;;;;;;;;;;;;;5126155;28;19918;-54
2024/01/01 15:23:50;;;;;;;;;;;;;;;;;;5124138;28;20448;-55
2024/01/01 15:26:21;;;;;;;;;;;;;;;;;;5143405;28;20407;-56
2024/01/01 15:28:53;;;;;;;;;;;;;;;;;;5121111;28;19919;-53
2024/01/01 15:31:25;;;;;;;;;;;;;;;;;;5141781;28;20024;-55
2024/01/01 15:33:56;;;;;;;;;;;;;;;;;;5125781;28;19925;-56
2024/01/01 15:36:27;;;;;;;;;;;;;;;;;;5138205;28;19945;-55
2024/01/01 15:38:58;;;;;;;;;;;;;;;;;;5141545;28;19918;-55
2024/01/01 15:41:29;;;;;;;;;;;;;;;;;;5141490;28;19932;-56
2024/01/01 15:44:00;;;;;;;;;;;;;;;;;;5142650;28;19918;-55
2024/01/01 15:46:31;;;;;;;;;;;;;;;;;;5125512;28;19922;-55
2024/01/01 15:49:02;;;;;;;;;;;;;;;;;;5141598;28;20282;-55
2024/01/01 15:51:33;;;;;;;;;;;;;;;;;;5126370;28;19969;-56
2024/01/01 15:54:04;;;;;;;;;;;;;;;;;;5146572;28;19918;-54
2024/01/01 15:56:35;;;;;;;;;;;;;;;;;;5126099;28;20296;-55
2024/01/01 15:59:06;;;;;;;;;;;;;;;;;;5141221;28;19926;-57
2024/01/01 16:01:37;;;;;;;;;;;;;;;;;;5125149;28;19918;-57
2024/01/01 16:04:08;;;;;;;;;;;;;;;;;;5141845;28;19929;-56
2024/01/01 16:06:42;;;;;;;;;;;;;;;;;;5141977;28;20368;-55
2024/01/01 16:09:13;;;;;;;;;;;;;;;;;;5140475;28;20285;-55
2024/01/01 16:11:44;;;;;;;;;;;;;;;;;;5125711;28;19918;-54
2024/01/01 16:14:15;;;;;;;;;;;;;;;;;;5125561;28;19925;-55
2024/01/01 16:16:46;;;;;;;;;;;;;;;;;;5124561;28;19926;-54
2024/01/01 16:19:17;;;;;;;;;;;;;;;;;;5125155;28;19972;-55
2024/01/01 16:21:53;;;;;;;;;;;;;;;;;;5124224;28;20024;-55
2024/01/01 16:24:25;;;;;;;;;;;;;;;;;;5122783;28;19964;-55
2024/01/01 16:26:56;;;;;;;;;;;;;;;;;;5141212;28;19924;-54
2024/01/01 16:29:27;;;;;;;;;;;;;;;;;;5141170;28;20287;-54
2024/01/01 16:31:58;;;;;;;;;;;;;;;;;;5125002;28;19992;-55
2024/01/01 16:34:29;;;;;;;;;;;;;;;;;;5124823;28;20297;-55
2024/01/01 16:36:59;;;;;;;;;;;;;;;;;;5143511;28;19933;-54
2024/01/01 16:39:30;;;;;;;;;;;;;;;;;;5127395;28;20468;-56
2024/01/01 16:42:02;;;;;;;;;;;;;;;;;;5124622;28;19926;-55
2024/01/01 16:44:33;;;;;;;;;;;;;;;;;;5124258;28;19926;-55
2024/01/01 16:47:04;;;;;;;;;;;;;;;;;;5122156;28;20350;-54
2024/01/01 16:49:35;;;;;;;;;;;;;;;;;;5124860;28;19922;-55
2024/01/01 16:52:09;;;;;;;;;;;;;;;;;;5137758;28;19925;-54
2024/01/01 16:54:41;;;;;;;;;;;;;;;;;;5123959;28;19915;-59
2024/01/01 16:57:12;;;;;;;;;;;;;;;;;;5124932;28;19922;-58
2024/01/01 16:59:43;;;;;;;;;;;;;;;;;;5143943;28;20304;-56
2024/01/01 17:02:14;;;;;;;;;;;;;;;;;;5138565;28;19918;-56
2024/01/01 17:04:45;;;;;;;;;;;;;;;;;;5139924;28;20319;-56
2024/01/01 17:07:16;;;;;;;;;;;;;;;;;;5141012;28;20277;-56
2024/01/01 17:09:47;;;;;;;;;;;;;;;;;;5140711;28;20338;-56
2024/01/01 17:12:18;;;;;;;;;;;;;;;;;;5159489;28;19976;-56